Time;durP1;ratioP1;P1;durP2;ratioP2;P2;SDS_P1;SDS_P2;PMS_P1;PMS_P2;Temp;Humidity;BMP_temperature;BMP_pressure;BME280_temperature;BME280_humidity;BME280_pressure;Samples;Min_cycle;Max_cycle;Signal;HPM_P1;HPM_P2
2024/01/15 00:01:37;;;;;;;;;62.00;46.33;;;;;1.20;100.00;100789.16;4983703;28;45373;-72
2024/01/15 00:04:02;;;;;;;;;39.33;29.00;;;;;1.19;100.00;100789.06;4979801;28;45450;-73
2024/01/15 00:06:28;;;;;;;;;65.67;51.33;;;;;1.14;100.00;100762.75;4972216;28;45604;-73
2024/01/15 00:08:53;;;;;;;;;43.00;35.25;;;;;1.20;100.00;100768.31;4980144;28;45337;-74
2024/01/15 00:11:19;;;;;;;;;69.67;51.33;;;;;1.25;100.00;100768.63;4980246;28;45283;-72
2024/01/15 00:13:44;;;;;;;;;46.00;36.50;;;;;1.22;100.00;100771.91;4979036;28;45441;-73
2024/01/15 00:16:10;;;;;;;;;50.25;35.50;;;;;1.14;100.00;100741.03;4977330;28;46304;-73
2024/01/15 00:18:35;;;;;;;;;68.67;52.00;;;;;1.19;100.00;100750.91;4978992;28;45460;-73
2024/01/15 00:21:01;;;;;;;;;59.33;41.67;;;;;0.90;100.00;100689.28;4980159;28;45176;-73
2024/01/15 00:23:26;;;;;;;;;55.33;43.67;;;;;1.19;100.00;100743.09;4979243;28;44632;-73
2024/01/15 00:25:51;;;;;;;;;47.25;39.00;;;;;1.05;100.00;100721.44;4980050;28;45390;-73
2024/01/15 00:28:17;;;;;;;;;49.50;41.50;;;;;0.85;100.00;100673.38;4979451;28;45467;-73
2024/01/15 00:30:42;;;;;;;;;40.75;34.50;;;;;1.38;100.00;100765.94;4977874;28;45386;-73
2024/01/15 00:33:07;;;;;;;;;39.75;33.50;;;;;1.11;100.00;100719.19;4980519;28;45260;-73
2024/01/15 00:35:33;;;;;;;;;44.50;34.75;;;;;1.24;100.00;100738.19;4978925;28;45232;-72
2024/01/15 00:37:58;;;;;;;;;40.25;38.00;;;;;1.30;100.00;100747.25;4980965;28;45521;-73
2024/01/15 00:40:25;;;;;;;;;40.25;33.75;;;;;1.31;100.00;100736.03;4974378;28;52002;-73
2024/01/15 00:42:50;;;;;;;;;58.67;44.00;;;;;1.46;100.00;100761.22;4981416;28;45497;-73
2024/01/15 00:45:16;;;;;;;;;57.67;44.00;;;;;1.43;100.00;100743.69;4975873;28;45530;-73
2024/01/15 00:47:41;;;;;;;;;50.50;38.75;;;;;1.40;100.00;100735.69;4980990;28;45421;-73
2024/01/15 00:50:06;;;;;;;;;43.50;34.25;;;;;1.47;100.00;100735.25;4976130;28;49655;-73
2024/01/15 00:52:32;;;;;;;;;85.33;59.67;;;;;1.58;100.00;100753.22;4981018;28;45318;-73
2024/01/15 00:54:57;;;;;;;;;84.33;59.67;;;;;1.43;100.00;100706.31;4977445;28;54152;-73
2024/01/15 00:57:22;;;;;;;;;38.50;37.00;;;;;1.36;100.00;100696.34;4980284;28;58620;-73
2024/01/15 00:59:48;;;;;;;;;45.75;39.50;;;;;1.60;100.00;100748.97;4978345;28;52817;-73
2024/01/15 01:02:13;;;;;;;;;42.75;37.25;;;;;1.38;100.00;100693.03;4983031;28;44754;-73
2024/01/15 01:04:39;;;;;;;;;46.50;39.25;;;;;1.50;100.00;100711.09;4978459;28;45454;-74
2024/01/15 01:07:04;;;;;;;;;48.00;33.00;;;;;1.52;100.00;100715.59;4980650;28;45431;-71
2024/01/15 01:09:30;;;;;;;;;36.50;32.25;;;;;1.61;100.00;100719.53;4978248;28;49449;-71
2024/01/15 01:11:56;;;;;;;;;41.50;36.00;;;;;1.68;100.00;100732.09;4980619;28;45247;-73
2024/01/15 01:14:21;;;;;;;;;37.00;30.00;;;;;1.25;100.00;100644.53;4976393;28;45808;-72
2024/01/15 01:16:47;;;;;;;;;38.25;31.50;;;;;1.60;100.00;100707.28;4980393;28;46790;-74
2024/01/15 01:19:12;;;;;;;;;35.00;29.25;;;;;1.56;100.00;100693.22;4977027;28;45172;-71
2024/01/15 01:21:37;;;;;;;;;36.75;33.25;;;;;1.29;100.00;100641.31;4980509;28;45208;-73
2024/01/15 01:24:03;;;;;;;;;36.25;34.75;;;;;1.59;100.00;100695.09;4978500;28;45310;-71
2024/01/15 01:26:28;;;;;;;;;39.75;33.50;;;;;1.62;100.00;100690.94;4978826;28;45312;-71
2024/01/15 01:28:54;;;;;;;;;44.50;33.25;;;;;1.72;100.00;100701.09;4978470;28;45437;-71
2024/01/15 01:31:19;;;;;;;;;50.25;36.50;;;;;1.67;100.00;100688.63;4987519;28;45425;-71
2024/01/15 01:33:44;;;;;;;;;40.25;32.50;;;;;1.80;100.00;100701.56;4977118;28;45243;-71
2024/01/15 01:36:10;;;;;;;;;36.00;30.00;;;;;1.83;100.00;100706.06;4970513;28;47322;-74
2024/01/15 01:38:36;;;;;;;;;52.00;32.00;;;;;1.85;100.00;100704.41;4977255;28;45301;-73
2024/01/15 01:41:02;;;;;;;;;40.75;30.50;;;;;1.72;100.00;100690.69;4974999;28;45205;-73
2024/01/15 01:43:27;;;;;;;;;40.25;31.25;;;;;1.84;100.00;100706.13;4978015;28;45270;-73
2024/01/15 01:45:56;;;;;;;;;38.25;31.25;;;;;1.69;100.00;100659.25;4977399;28;45401;-73
2024/01/15 01:48:21;;;;;;;;;36.25;30.25;;;;;1.81;100.00;100682.50;4977868;28;45461;-73
2024/01/15 01:50:47;;;;;;;;;38.50;28.50;;;;;1.86;100.00;100690.59;4978598;28;45378;-73
2024/01/15 01:53:13;;;;;;;;;43.50;32.50;;;;;1.75;100.00;100672.63;4977348;28;45780;-73
2024/01/15 01:55:39;;;;;;;;;43.75;37.25;;;;;1.80;100.00;100670.28;4978929;28;45460;-73
2024/01/15 01:58:04;;;;;;;;;38.25;28.25;;;;;1.93;100.00;100687.50;4979622;28;45251;-73
2024/01/15 02:00:30;;;;;;;;;40.00;33.25;;;;;1.61;100.00;100621.44;4976301;28;45454;-73
2024/01/15 02:02:56;;;;;;;;;33.50;28.50;;;;;1.79;100.00;100647.63;4980202;28;45809;-73
2024/01/15 02:05:22;;;;;;;;;30.00;25.25;;;;;1.77;100.00;100639.75;4977780;28;45413;-73
2024/01/15 02:07:47;;;;;;;;;30.50;22.00;;;;;1.72;100.00;100624.66;4978838;28;45349;-71
2024/01/15 02:10:13;;;;;;;;;33.75;23.00;;;;;1.51;100.00;100580.03;4973223;28;45362;-73
2024/01/15 02:12:38;;;;;;;;;30.75;24.50;;;;;1.86;100.00;100638.47;4980036;28;44681;-73
2024/01/15 02:15:04;;;;;;;;;36.75;30.75;;;;;1.74;100.00;100602.19;4974174;28;45095;-72
2024/01/15 02:17:29;;;;;;;;;34.75;25.00;;;;;1.86;100.00;100626.31;4979662;28;45446;-73
2024/01/15 02:19:55;;;;;;;;;34.00;26.75;;;;;1.84;100.00;100614.03;4971441;28;55397;-73
2024/01/15 02:22:20;;;;;;;;;36.00;26.25;;;;;1.88;100.00;100639.47;4978275;28;45574;-73
2024/01/15 02:24:45;;;;;;;;;31.75;27.75;;;;;1.69;100.00;100608.84;4973709;28;45357;-73
2024/01/15 02:27:11;;;;;;;;;37.50;30.50;;;;;1.96;100.00;100667.75;4979749;28;45270;-73
2024/01/15 02:29:37;;;;;;;;;36.25;28.50;;;;;1.86;100.00;100646.28;4973413;28;45460;-73
2024/01/15 02:32:06;;;;;;;;;32.50;30.75;;;;;1.76;100.00;100635.34;4979519;28;45445;-73
2024/01/15 02:34:32;;;;;;;;;37.00;30.25;;;;;1.92;100.00;100662.25;4972941;28;45357;-73
2024/01/15 02:36:58;;;;;;;;;37.50;31.00;;;;;1.83;100.00;100651.31;4979770;28;45415;-73
2024/01/15 02:39:23;;;;;;;;;48.50;35.50;;;;;1.96;100.00;100669.44;4972273;28;45493;-73
2024/01/15 02:41:48;;;;;;;;;32.75;26.00;;;;;1.96;100.00;100664.22;4974941;28;59988;-73
2024/01/15 02:44:13;;;;;;;;;39.75;32.25;;;;;1.91;100.00;100650.06;4975935;28;55500;-73
2024/01/15 02:46:39;;;;;;;;;39.50;29.75;;;;;1.75;100.00;100612.69;4978040;28;45607;-73
2024/01/15 02:49:04;;;;;;;;;44.00;37.00;;;;;1.79;100.00;100618.97;4975422;28;45455;-73
2024/01/15 02:51:29;;;;;;;;;37.75;31.50;;;;;1.59;100.00;100591.78;4977564;28;51253;-73
2024/01/15 02:53:55;;;;;;;;;39.25;32.75;;;;;1.94;100.00;100666.75;4976448;28;46600;-73
2024/01/15 02:56:20;;;;;;;;;37.50;33.75;;;;;2.03;100.00;100671.59;4978807;28;48463;-73
2024/01/15 02:58:45;;;;;;;;;34.50;30.00;;;;;1.95;100.00;100652.91;4977419;28;45404;-73
2024/01/15 03:01:11;;;;;;;;;33.25;25.50;;;;;1.78;100.00;100617.19;4980528;28;45310;-73
2024/01/15 03:03:36;;;;;;;;;40.75;32.25;;;;;1.85;100.00;100624.53;4977753;28;62463;-73
2024/01/15 03:06:02;;;;;;;;;35.75;28.50;;;;;1.95;100.00;100649.41;4981420;28;53164;-71
2024/01/15 03:08:29;;;;;;;;;31.75;26.50;;;;;1.97;100.00;100653.88;4980999;28;45420;-73
2024/01/15 03:10:54;;;;;;;;;32.50;25.25;;;;;1.73;100.00;100618.63;4978509;28;44781;-73
2024/01/15 03:13:19;;;;;;;;;31.50;25.00;;;;;1.86;100.00;100644.56;4981426;28;45449;-73
2024/01/15 03:15:45;;;;;;;;;30.25;27.25;;;;;1.85;100.00;100648.00;4975023;28;49556;-71
2024/01/15 03:18:10;;;;;;;;;26.75;20.50;;;;;1.97;100.00;100682.56;4980862;28;52502;-73
2024/01/15 03:20:35;;;;;;;;;28.75;23.00;;;;;1.92;100.00;100655.34;4977168;28;59610;-73
2024/01/15 03:23:00;;;;;;;;;38.50;34.25;;;;;1.70;100.00;100618.44;4981590;28;49116;-73
2024/01/15 03:25:26;;;;;;;;;28.25;26.75;;;;;2.09;100.00;100689.28;4977765;28;45448;-73
2024/01/15 03:27:51;;;;;;;;;31.00;28.25;;;;;1.95;100.00;100668.53;4981987;28;45602;-73
2024/01/15 03:30:16;;;;;;;;;32.50;26.00;;;;;2.01;100.00;100670.59;4978564;28;45351;-73
2024/01/15 03:32:42;;;;;;;;;29.25;24.50;;;;;1.98;100.00;100662.59;4982008;28;45505;-73
2024/01/15 03:35:07;;;;;;;;;31.00;28.00;;;;;1.92;100.00;100659.66;4975448;28;45370;-73
2024/01/15 03:37:33;;;;;;;;;35.75;27.00;;;;;1.99;100.00;100669.63;4981986;28;45324;-73
2024/01/15 03:39:58;;;;;;;;;37.50;25.25;;;;;1.90;100.00;100648.25;4973203;28;45956;-73
2024/01/15 03:42:24;;;;;;;;;25.75;22.25;;;;;2.00;100.00;100674.03;4977393;28;45504;-73
2024/01/15 03:44:49;;;;;;;;;28.50;23.25;;;;;1.81;100.00;100640.81;4979733;28;45342;-73
2024/01/15 03:47:14;;;;;;;;;27.25;26.00;;;;;1.41;100.00;100581.22;4980335;28;47315;-73
2024/01/15 03:49:40;;;;;;;;;39.75;28.75;;;;;1.88;100.00;100658.59;4977258;28;52514;-73
2024/01/15 03:52:05;;;;;;;;;30.50;27.25;;;;;1.64;100.00;100613.78;4981723;28;45302;-73
2024/01/15 03:54:30;;;;;;;;;31.00;26.50;;;;;1.95;100.00;100667.66;4978572;28;45563;-71
2024/01/15 03:56:56;;;;;;;;;29.25;21.00;;;;;1.75;100.00;100617.00;4980758;28;44802;-73
2024/01/15 03:59:21;;;;;;;;;31.75;22.25;;;;;1.89;100.00;100639.53;4979642;28;45733;-72
2024/01/15 04:01:53;;;;;;;;;36.00;29.50;;;;;1.83;100.00;100623.56;4991274;28;45268;-72
2024/01/15 04:04:18;;;;;;;;;23.75;12.50;;;;;1.96;100.00;100644.28;4993266;28;45734;-72
2024/01/15 04:06:44;;;;;;;;;31.00;23.50;;;;;1.73;100.00;100609.09;4981883;28;45267;-72
2024/01/15 04:09:09;;;;;;;;;32.25;25.50;;;;;1.72;100.00;100602.09;4976322;28;46844;-72
2024/01/15 04:11:35;;;;;;;;;33.50;29.00;;;;;1.85;100.00;100616.72;4982111;28;46510;-72
2024/01/15 04:14:00;;;;;;;;;31.00;26.00;;;;;1.77;100.00;100605.88;4977877;28;53661;-72
2024/01/15 04:16:25;;;;;;;;;32.25;22.50;;;;;1.83;100.00;100618.34;4981490;28;47197;-72
2024/01/15 04:18:50;;;;;;;;;29.75;24.75;;;;;1.82;100.00;100619.16;4978173;28;45334;-72
2024/01/15 04:21:17;;;;;;;;;36.50;28.25;;;;;1.83;100.00;100613.13;4981241;28;47533;-73
2024/01/15 04:23:43;;;;;;;;;39.00;24.00;;;;;1.93;100.00;100619.75;4979219;28;45334;-72
2024/01/15 04:26:08;;;;;;;;;32.00;26.25;;;;;1.98;100.00;100623.50;4977357;28;45353;-72
2024/01/15 04:28:33;;;;;;;;;31.00;26.50;;;;;1.70;100.00;100569.84;4979279;28;50808;-72
2024/01/15 04:30:59;;;;;;;;;25.25;21.00;;;;;2.03;100.00;100621.16;4979667;28;45553;-72
2024/01/15 04:33:24;;;;;;;;;32.75;23.50;;;;;2.00;100.00;100611.47;4979974;28;45248;-72
2024/01/15 04:35:49;;;;;;;;;29.75;25.00;;;;;1.95;100.00;100586.84;4976773;28;48076;-72
2024/01/15 04:38:15;;;;;;;;;29.00;21.75;;;;;2.00;100.00;100598.44;4980364;28;47695;-73
2024/01/15 04:40:40;;;;;;;;;29.25;23.50;;;;;1.96;100.00;100586.03;4990059;28;64253;-73
2024/01/15 04:43:06;;;;;;;;;30.25;21.50;;;;;2.03;100.00;100589.88;4995999;28;45290;-72
2024/01/15 04:45:31;;;;;;;;;28.75;21.00;;;;;2.06;100.00;100592.66;4976743;28;45646;-72
2024/01/15 04:47:57;;;;;;;;;33.00;24.50;;;;;2.14;100.00;100597.47;4995970;28;53962;-72
2024/01/15 04:50:23;;;;;;;;;36.25;29.25;;;;;2.01;100.00;100568.94;4975382;28;45390;-72
2024/01/15 04:52:48;;;;;;;;;27.00;21.50;;;;;2.14;100.00;100593.97;4979705;28;45372;-72
2024/01/15 04:55:13;;;;;;;;;33.00;24.75;;;;;2.09;100.00;100574.56;4978029;28;49042;-72
2024/01/15 04:57:38;;;;;;;;;32.75;24.00;;;;;1.52;100.00;100475.94;4981016;28;45278;-73
2024/01/15 05:00:05;;;;;;;;;32.75;24.75;;;;;1.98;100.00;100560.94;4977104;28;58059;-72
2024/01/15 05:02:30;;;;;;;;;30.00;23.75;;;;;2.15;100.00;100587.94;4983834;28;45277;-72
2024/01/15 05:04:55;;;;;;;;;28.50;18.50;;;;;2.24;100.00;100610.22;4978538;28;45722;-72
2024/01/15 05:07:20;;;;;;;;;23.00;20.00;;;;;2.19;100.00;100595.13;4980629;28;45689;-72
2024/01/15 05:09:46;;;;;;;;;25.00;21.50;;;;;1.98;100.00;100558.34;4975525;28;47344;-72
2024/01/15 05:12:11;;;;;;;;;21.75;21.75;;;;;2.01;100.00;100566.31;4980880;28;45413;-72
2024/01/15 05:14:37;;;;;;;;;27.00;22.25;;;;;1.85;100.00;100533.34;4977574;28;45300;-72
2024/01/15 05:17:02;;;;;;;;;28.50;23.25;;;;;1.94;100.00;100549.47;4980798;28;45556;-73
2024/01/15 05:19:27;;;;;;;;;26.75;21.00;;;;;2.22;100.00;100590.06;4977311;28;46641;-72
2024/01/15 05:21:53;;;;;;;;;31.75;22.75;;;;;2.16;100.00;100572.38;4995844;28;52689;-73
2024/01/15 05:24:18;;;;;;;;;29.75;25.25;;;;;2.26;100.00;100588.53;4978663;28;45400;-73
2024/01/15 05:26:43;;;;;;;;;30.50;26.75;;;;;1.83;100.00;100506.28;4979719;28;48980;-73
2024/01/15 05:29:08;;;;;;;;;30.50;22.50;;;;;2.23;100.00;100571.00;4978514;28;47778;-73
2024/01/15 05:31:35;;;;;;;;;29.25;22.75;;;;;2.09;100.00;100544.19;4978453;28;45290;-73
2024/01/15 05:34:01;;;;;;;;;23.25;18.25;;;;;2.27;100.00;100561.63;4978515;28;45413;-73
2024/01/15 05:36:26;;;;;;;;;36.75;25.50;;;;;2.21;100.00;100549.16;4979454;28;55776;-73
2024/01/15 05:38:52;;;;;;;;;29.00;21.00;;;;;2.31;100.00;100571.41;4977170;28;53742;-73
2024/01/15 05:41:17;;;;;;;;;29.25;22.25;;;;;2.33;100.00;100570.69;4976680;28;45449;-73
2024/01/15 05:43:43;;;;;;;;;24.25;21.25;;;;;2.44;100.00;100586.91;4977941;28;45549;-73
2024/01/15 05:46:08;;;;;;;;;27.75;21.25;;;;;2.20;100.00;100540.44;4977874;28;45421;-73
2024/01/15 05:48:33;;;;;;;;;27.75;18.75;;;;;2.37;100.00;100562.19;4978109;28;45644;-73
2024/01/15 05:50:59;;;;;;;;;30.00;22.25;;;;;2.31;100.00;100545.34;4978476;28;45460;-73
2024/01/15 05:53:24;;;;;;;;;27.75;21.75;;;;;2.23;100.00;100532.78;4978224;28;44887;-73
2024/01/15 05:55:49;;;;;;;;;39.00;25.00;;;;;2.50;100.00;100579.41;4994588;28;47032;-73
2024/01/15 05:58:15;;;;;;;;;26.50;20.25;;;;;2.33;100.00;100544.59;4978180;28;51242;-73
2024/01/15 06:00:40;;;;;;;;;22.00;18.75;;;;;2.52;100.00;100574.25;4979365;28;45333;-73
2024/01/15 06:03:05;;;;;;;;;20.75;17.25;;;;;2.41;100.00;100545.03;4981734;28;44779;-73
2024/01/15 06:05:30;;;;;;;;;23.25;17.25;;;;;2.40;100.00;100553.63;4977472;28;52883;-73
2024/01/15 06:07:56;;;;;;;;;17.50;16.25;;;;;2.45;100.00;100567.81;4979581;28;53040;-73
2024/01/15 06:10:21;;;;;;;;;31.75;23.25;;;;;2.23;100.00;100524.06;4975460;28;44810;-73
2024/01/15 06:12:47;;;;;;;;;22.25;17.25;;;;;2.39;100.00;100544.91;4980459;28;45254;-73
2024/01/15 06:15:12;;;;;;;;;32.75;26.50;;;;;2.29;100.00;100523.50;4975304;28;49551;-72
2024/01/15 06:17:38;;;;;;;;;27.00;21.25;;;;;2.50;100.00;100558.53;4979857;28;45326;-72
2024/01/15 06:20:04;;;;;;;;;29.25;22.75;;;;;2.58;100.00;100574.59;4976996;28;57993;-72
2024/01/15 06:22:29;;;;;;;;;25.75;18.75;;;;;2.45;100.00;100554.78;4979897;28;45163;-73
2024/01/15 06:24:55;;;;;;;;;24.00;22.25;;;;;2.53;100.00;100563.91;4975301;28;45381;-73
2024/01/15 06:27:21;;;;;;;;;25.75;19.25;;;;;2.27;100.00;100509.47;4979809;28;45978;-72
2024/01/15 06:29:47;;;;;;;;;25.00;18.25;;;;;2.18;100.00;100505.56;4974775;28;45467;-72
2024/01/15 06:32:12;;;;;;;;;21.50;17.25;;;;;2.48;100.00;100549.72;4979952;28;45539;-72
2024/01/15 06:34:38;;;;;;;;;17.50;17.50;;;;;2.49;100.00;100555.84;4977456;28;45345;-73
2024/01/15 06:37:03;;;;;;;;;28.00;21.50;;;;;2.49;100.00;100548.91;4979563;28;45451;-72
2024/01/15 06:39:29;;;;;;;;;29.25;19.00;;;;;2.64;100.00;100567.97;4979441;28;45384;-72
2024/01/15 06:41:54;;;;;;;;;20.50;19.50;;;;;2.66;100.00;100576.78;4983205;28;44834;-73
2024/01/15 06:44:21;;;;;;;;;26.25;18.00;;;;;2.61;100.00;100574.75;4977863;28;60889;-73
2024/01/15 06:46:47;;;;;;;;;20.00;19.75;;;;;2.63;100.00;100579.25;4979157;28;46793;-73
2024/01/15 06:49:12;;;;;;;;;30.00;26.00;;;;;2.49;100.00;100553.22;4978678;28;45230;-74
2024/01/15 06:51:38;;;;;;;;;25.25;19.50;;;;;2.67;100.00;100589.00;4982464;28;45234;-73
2024/01/15 06:54:03;;;;;;;;;28.50;23.00;;;;;2.61;100.00;100577.38;4978563;28;46003;-73
2024/01/15 06:56:29;;;;;;;;;31.75;26.50;;;;;2.62;100.00;100569.59;4980985;28;47206;-73
2024/01/15 06:58:54;;;;;;;;;27.75;25.75;;;;;2.67;100.00;100594.22;4980508;28;45360;-73
2024/01/15 07:01:20;;;;;;;;;27.50;23.25;;;;;2.43;100.00;100539.03;4985250;28;45213;-73
2024/01/15 07:03:45;;;;;;;;;28.50;23.25;;;;;2.66;100.00;100568.03;4978758;28;45224;-73
2024/01/15 07:06:11;;;;;;;;;33.75;28.00;;;;;2.56;100.00;100556.25;4982227;28;45608;-73
2024/01/15 07:08:37;;;;;;;;;26.00;24.00;;;;;2.59;100.00;100552.91;4980900;28;45739;-73
2024/01/15 07:11:06;;;;;;;;;34.00;27.00;;;;;2.51;100.00;100544.66;4979237;28;45377;-72
2024/01/15 07:13:32;;;;;;;;;36.75;28.25;;;;;2.59;100.00;100566.84;4980374;28;45317;-74
2024/01/15 07:15:58;;;;;;;;;27.75;24.50;;;;;2.62;100.00;100560.88;4980518;28;45873;-72
2024/01/15 07:18:23;;;;;;;;;31.75;23.00;;;;;2.43;100.00;100525.09;4980289;28;45215;-71
2024/01/15 07:20:48;;;;;;;;;31.75;26.00;;;;;2.49;100.00;100548.00;4981523;28;45191;-72
2024/01/15 07:23:14;;;;;;;;;33.75;25.50;;;;;2.23;100.00;100522.34;4981385;28;45215;-73
2024/01/15 07:25:39;;;;;;;;;29.25;19.25;;;;;2.47;100.00;100564.50;4985958;28;46958;-71
2024/01/15 07:28:05;;;;;;;;;31.25;25.50;;;;;2.52;100.00;100562.13;4978086;28;45192;-73
2024/01/15 07:30:30;;;;;;;;;24.00;21.25;;;;;2.56;100.00;100584.06;4979821;28;45333;-71
2024/01/15 07:32:55;;;;;;;;;28.75;22.75;;;;;2.56;100.00;100573.63;4982054;28;45207;-71
2024/01/15 07:35:21;;;;;;;;;28.25;23.75;;;;;2.53;100.00;100574.34;4978694;28;53079;-72
2024/01/15 07:37:46;;;;;;;;;31.75;25.50;;;;;2.71;100.00;100602.22;4981986;28;45141;-72
2024/01/15 07:40:12;;;;;;;;;34.75;22.50;;;;;2.65;100.00;100600.19;4977021;28;45283;-71
2024/01/15 07:42:38;;;;;;;;;28.25;24.50;;;;;2.65;100.00;100600.19;4978655;28;45658;-72
2024/01/15 07:45:04;;;;;;;;;40.75;31.75;;;;;2.62;100.00;100606.13;4981583;28;46592;-72
2024/01/15 07:47:29;;;;;;;;;30.00;25.25;;;;;2.24;100.00;100550.22;4979133;28;45515;-72
2024/01/15 07:49:55;;;;;;;;;31.00;23.75;;;;;2.44;100.00;100577.38;4977814;28;45273;-72
2024/01/15 07:52:21;;;;;;;;;30.00;23.25;;;;;2.50;100.00;100589.84;4980754;28;45496;-72
2024/01/15 07:54:46;;;;;;;;;37.00;30.50;;;;;2.65;100.00;100614.13;4977994;28;45551;-69
2024/01/15 07:57:11;;;;;;;;;28.75;25.75;;;;;2.62;100.00;100611.34;4980113;28;45554;-75
2024/01/15 07:59:37;;;;;;;;;32.50;26.75;;;;;2.41;100.00;100566.78;4977440;28;45366;-72
2024/01/15 08:02:02;;;;;;;;;35.25;28.25;;;;;2.75;100.00;100627.69;4985482;28;45208;-72
2024/01/15 08:04:28;;;;;;;;;34.25;29.50;;;;;2.64;100.00;100612.34;4975655;28;46973;-72
2024/01/15 08:06:53;;;;;;;;;30.75;28.25;;;;;2.57;100.00;100610.22;4981574;28;45291;-73
2024/01/15 08:09:18;;;;;;;;;35.75;27.50;;;;;2.61;100.00;100609.56;4976303;28;45479;-71
2024/01/15 08:11:44;;;;;;;;;31.75;26.00;;;;;2.67;100.00;100625.53;4981312;28;45258;-72
2024/01/15 08:14:10;;;;;;;;;36.75;30.25;;;;;2.81;100.00;100639.31;4975839;28;46700;-73
2024/01/15 08:16:36;;;;;;;;;30.75;24.25;;;;;2.60;100.00;100597.31;4979427;28;45272;-73
2024/01/15 08:19:02;;;;;;;;;34.50;28.75;;;;;2.66;100.00;100613.31;4978640;28;45182;-72
2024/01/15 08:21:31;;;;;;;;;44.50;31.25;;;;;2.88;100.00;100656.19;4979239;28;45521;-72
2024/01/15 08:24:00;;;;;;;;;31.75;31.00;;;;;2.82;100.00;100643.72;4978835;28;45484;-73
2024/01/15 08:26:25;;;;;;;;;28.50;26.50;;;;;2.73;100.00;100624.97;4970975;28;45309;-72
2024/01/15 08:28:51;;;;;;;;;27.00;27.00;;;;;2.76;100.00;100629.47;4979212;28;45491;-72
2024/01/15 08:31:17;;;;;;;;;37.00;32.50;;;;;2.81;100.00;100630.59;4979961;28;45266;-73
2024/01/15 08:33:42;;;;;;;;;41.25;30.00;;;;;2.92;100.00;100651.22;4977879;28;48025;-73
2024/01/15 08:36:09;;;;;;;;;34.00;29.50;;;;;2.88;100.00;100641.41;4987461;28;45330;-73
2024/01/15 08:38:34;;;;;;;;;34.75;31.25;;;;;2.68;100.00;100602.94;4979239;28;45278;-72
2024/01/15 08:41:00;;;;;;;;;27.50;18.75;;;;;2.84;100.00;100638.59;4973307;28;46081;-73
2024/01/15 08:43:26;;;;;;;;;29.75;25.50;;;;;2.77;100.00;100623.41;4978936;28;45631;-73
2024/01/15 08:45:52;;;;;;;;;30.75;18.75;;;;;2.84;100.00;100636.88;4978605;28;45521;-72
2024/01/15 08:48:17;;;;;;;;;28.00;22.00;;;;;2.87;100.00;100655.31;4979873;28;45243;-73
2024/01/15 08:50:42;;;;;;;;;33.75;27.75;;;;;2.76;100.00;100627.75;4993325;28;45963;-73
2024/01/15 08:53:08;;;;;;;;;32.00;21.25;;;;;3.06;100.00;100696.34;4980676;28;45379;-72
2024/01/15 08:55:33;;;;;;;;;29.25;25.50;;;;;3.09;100.00;100698.22;4977136;28;45295;-72
2024/01/15 08:57:59;;;;;;;;;33.75;27.25;;;;;3.04;100.00;100686.63;4980751;28;45732;-74
2024/01/15 09:00:24;;;;;;;;;32.50;27.25;;;;;3.04;100.00;100694.47;4977039;28;54307;-73
2024/01/15 09:02:49;;;;;;;;;28.50;26.25;;;;;2.89;100.00;100658.00;4982394;28;62270;-72
2024/01/15 09:05:15;;;;;;;;;28.50;24.00;;;;;2.84;100.00;100649.94;4974247;28;59581;-72
2024/01/15 09:07:40;;;;;;;;;34.50;27.50;;;;;3.04;100.00;100687.53;4980486;28;45199;-73
2024/01/15 09:10:06;;;;;;;;;33.00;28.00;;;;;3.21;100.00;100700.56;4973879;28;46159;-72
2024/01/15 09:12:31;;;;;;;;;31.50;26.25;;;;;3.18;100.00;100700.41;4979226;28;45738;-72
2024/01/15 09:14:57;;;;;;;;;33.25;28.25;;;;;2.92;100.00;100652.94;4976913;28;47379;-73
2024/01/15 09:17:25;;;;;;;;;34.25;25.25;;;;;3.16;100.00;100686.38;4979040;28;45446;-73
2024/01/15 09:19:50;;;;;;;;;26.75;23.00;;;;;3.19;100.00;100687.41;4974724;28;47343;-73
2024/01/15 09:22:18;;;;;;;;;28.75;20.00;;;;;3.12;100.00;100669.66;4980172;28;45255;-73
2024/01/15 09:24:47;;;;;;;;;34.00;28.25;;;;;3.32;100.00;100695.06;4976906;28;45287;-73
2024/01/15 09:27:13;;;;;;;;;24.25;24.00;;;;;3.33;100.00;100694.28;4979167;28;45319;-73
2024/01/15 09:29:39;;;;;;;;;33.25;26.00;;;;;3.19;100.00;100669.13;4977525;28;45426;-73
2024/01/15 09:32:07;;;;;;;;;27.25;21.75;;;;;3.24;100.00;100679.81;4978759;28;47005;-73
2024/01/15 09:34:32;;;;;;;;;21.25;19.25;;;;;3.29;100.00;100694.03;4973636;28;45520;-73
2024/01/15 09:36:59;;;;;;;;;32.00;23.00;;;;;3.29;100.00;100694.03;4980207;28;45152;-73
2024/01/15 09:39:26;;;;;;;;;32.50;22.75;;;;;3.28;100.00;100700.97;4975350;28;45936;-73
2024/01/15 09:41:51;;;;;;;;;21.75;17.75;;;;;3.18;100.00;100679.50;4978721;28;45282;-73
2024/01/15 09:44:17;;;;;;;;;24.25;20.50;;;;;3.27;100.00;100686.09;4975232;28;45286;-73
2024/01/15 09:46:44;;;;;;;;;27.75;23.25;;;;;3.42;100.00;100712.13;4979827;28;45239;-71
2024/01/15 09:49:10;;;;;;;;;27.00;23.75;;;;;3.49;100.00;100698.53;4977023;28;45355;-72
2024/01/15 09:51:36;;;;;;;;;17.25;15.00;;;;;3.47;100.00;100681.88;4979679;28;45370;-72
2024/01/15 09:54:02;;;;;;;;;22.75;22.25;;;;;3.61;100.00;100707.81;4975748;28;45444;-73
2024/01/15 09:56:27;;;;;;;;;25.75;20.75;;;;;3.40;100.00;100671.06;4978403;28;45342;-72
2024/01/15 09:58:52;;;;;;;;;24.50;19.25;;;;;3.70;100.00;100718.78;4976988;28;45270;-72
2024/01/15 10:01:20;;;;;;;;;18.75;18.25;;;;;3.66;100.00;100708.97;4996637;28;46532;-72
2024/01/15 10:03:46;;;;;;;;;25.25;23.25;;;;;3.51;100.00;100675.13;4991400;28;45426;-72
2024/01/15 10:06:17;;;;;;;;;32.75;24.75;;;;;3.79;100.00;100727.97;4976536;28;45437;-72
2024/01/15 10:08:47;;;;;;;;;23.50;19.75;;;;;3.77;100.00;100713.91;4976687;28;45344;-71
2024/01/15 10:11:12;;;;;;;;;16.75;15.25;;;;;3.95;100.00;100726.09;4977790;28;45435;-72
2024/01/15 10:13:39;;;;;;;;;19.75;17.50;;;;;4.00;100.00;100722.00;4976821;28;46059;-72
2024/01/15 10:16:04;;;;;;;;;15.75;11.75;;;;;3.98;100.00;100687.94;4978796;28;45426;-72
2024/01/15 10:18:30;;;;;;;;;16.75;14.25;;;;;4.46;100.00;100737.31;4975758;28;45294;-72
2024/01/15 10:20:57;;;;;;;;;28.50;18.50;;;;;4.44;100.00;100705.81;4977470;28;45632;-72
2024/01/15 10:23:23;;;;;;;;;25.00;14.75;;;;;4.82;100.00;100734.66;4978224;28;45749;-72
2024/01/15 10:25:48;;;;;;;;;22.00;16.25;;;;;4.80;100.00;100702.25;4976526;28;45477;-72
2024/01/15 10:28:14;;;;;;;;;16.75;15.75;;;;;4.83;100.00;100700.66;4991206;28;46282;-73
2024/01/15 10:30:40;;;;;;;;;16.50;12.75;;;;;5.11;100.00;100725.47;4989231;28;45250;-73
2024/01/15 10:33:05;;;;;;;;;13.50;10.25;;;;;5.18;100.00;100722.28;4979310;28;45215;-74
2024/01/15 10:35:32;;;;;;;;;15.75;12.00;;;;;5.36;100.00;100738.84;4975117;28;45248;-73
2024/01/15 10:37:59;;;;;;;;;14.75;13.00;;;;;5.37;100.00;100721.38;4978199;28;46012;-72
2024/01/15 10:40:24;;;;;;;;;16.75;14.00;;;;;5.38;100.00;100715.34;4972821;28;46511;-74
2024/01/15 10:42:50;;;;;;;;;16.75;11.50;;;;;5.33;100.00;100696.78;4976717;28;45350;-74
2024/01/15 10:45:15;;;;;;;;;6.50;6.25;;;;;5.59;100.00;100724.09;4976144;28;45457;-74
2024/01/15 10:47:42;;;;;;;;;10.50;8.00;;;;;5.55;100.00;100713.44;4978765;28;45279;-73
2024/01/15 10:50:08;;;;;;;;;8.00;8.00;;;;;5.78;100.00;100730.16;4970011;28;45598;-72
2024/01/15 10:52:36;;;;;;;;;5.75;4.25;;;;;5.84;100.00;100731.28;4990051;28;45319;-72
2024/01/15 10:55:03;;;;;;;;;8.50;6.00;;;;;5.63;100.00;100701.56;4977267;28;45226;-74
2024/01/15 10:57:29;;;;;;;;;8.75;5.75;;;;;5.76;100.00;100729.19;4979153;28;44858;-72
2024/01/15 10:59:54;;;;;;;;;6.50;6.00;;;;;5.72;100.00;100732.53;4977311;28;46747;-74
2024/01/15 11:02:20;;;;;;;;;3.00;3.00;;;;;5.79;100.00;100738.06;4988807;28;45294;-74